Time;durP1;ratioP1;P1;durP2;ratioP2;P2;SDS_P1;SDS_P2;PMS_P1;PMS_P2;Temp;Humidity;BMP_temperature;BMP_pressure;BME280_temperature;BME280_humidity;BME280_pressure;Samples;Min_cycle;Max_cycle;Signal;HPM_P1;HPM_P2
2022/06/03 00:01:35;;;;;;;;;;;17.50;99.90;;;17.74;67.22;101893.56;4826491;29;20056;-68
2022/06/03 00:04:31;;;;;;;;;;;17.50;99.90;;;17.66;67.30;101903.50;4843081;29;19931;-69
2022/06/03 00:07:12;;;;;;;;;;;17.40;99.90;;;17.69;67.77;101896.31;4843450;29;20026;-69
2022/06/03 00:10:07;;;;;;;;;;;17.40;99.90;;;17.66;67.83;101891.00;4842887;29;19931;-69
2022/06/03 00:12:51;;;;;;;;;;;17.40;99.90;;;17.54;68.69;101893.88;4841715;29;19924;-68
2022/06/03 00:15:42;;;;;;;;;;;17.30;99.90;;;16.83;69.00;101779.16;4842600;29;19981;-68
2022/06/03 00:18:48;;;;;;;;;;;17.20;99.90;;;17.42;69.39;101883.34;4842646;29;19941;-68
2022/06/03 00:21:28;;;;;;;;;;;17.20;99.90;;;17.15;69.66;101879.31;4842723;29;19929;-69
2022/06/03 00:24:09;;;;;;;;;;;17.10;99.90;;;17.19;70.12;101881.97;4841625;29;20375;-69
2022/06/03 00:26:58;;;;;;;;;;;16.90;99.90;;;17.02;70.06;101853.69;4842833;29;19924;-69
2022/06/03 00:29:35;;;;;;;;;;;17.00;99.90;;;16.48;71.27;101822.41;4841532;29;19925;-69
2022/06/03 00:32:26;;;;;;;;;;;16.70;99.90;;;16.78;71.34;101850.50;4842572;29;19935;-69
2022/06/03 00:35:06;;;;;;;;;;;16.60;99.90;;;16.72;71.79;101872.84;4835643;29;19994;-70
2022/06/03 00:37:42;;;;;;;;;;;16.60;99.90;;;16.71;71.99;101873.72;4843856;29;19928;-69
2022/06/03 00:40:32;;;;;;;;;;;16.50;99.90;;;15.88;72.40;101745.72;4843894;29;19956;-70
2022/06/03 00:43:15;;;;;;;;;;;16.40;99.90;;;16.74;72.29;101878.16;4844116;29;19971;-70
2022/06/03 00:46:10;;;;;;;;;;;16.50;99.90;;;16.76;72.06;101871.88;4846659;29;19924;-68
2022/06/03 00:48:50;;;;;;;;;;;16.50;99.90;;;15.51;71.71;101699.03;4846929;29;19929;-69
2022/06/03 00:51:36;;;;;;;;;;;16.60;99.90;;;16.52;72.09;101855.28;4848831;29;20303;-69
2022/06/03 00:54:27;;;;;;;;;;;16.50;99.90;;;16.73;72.23;101871.94;4850679;29;19974;-69
2022/06/03 00:57:20;;;;;;;;;;;16.50;99.90;;;16.41;72.35;101858.09;4846515;29;20025;-69
2022/06/03 01:00:04;;;;;;;;;;;16.40;99.90;;;16.51;72.59;101873.09;4846285;29;19934;-68
2022/06/03 01:02:48;;;;;;;;;;;16.30;99.90;;;16.37;72.46;101869.69;4845770;29;19924;-68
2022/06/03 01:05:29;;;;;;;;;;;16.20;99.90;;;16.34;72.53;101856.38;4845791;29;19924;-68
2022/06/03 01:08:06;;;;;;;;;;;16.20;99.90;;;16.18;72.49;101852.13;4845055;29;19928;-68
2022/06/03 01:10:56;;;;;;;;;;;16.10;99.90;;;16.35;72.65;101863.50;4845676;29;19928;-69
2022/06/03 01:13:46;;;;;;;;;;;16.10;99.90;;;14.89;72.42;101620.59;4845553;29;19977;-68
2022/06/03 01:16:22;;;;;;;;;;;16.10;99.90;;;16.42;72.17;101862.50;4845403;29;19990;-69
2022/06/03 01:18:58;;;;;;;;;;;16.20;99.90;;;16.46;72.23;101856.22;4845406;29;19925;-68
2022/06/03 01:21:39;;;;;;;;;;;16.20;99.90;;;16.49;71.89;101850.00;4845670;29;19924;-68
2022/06/03 01:24:24;;;;;;;;;;;16.30;99.90;;;16.49;71.78;101866.88;4845260;29;19949;-69
2022/06/03 01:27:18;;;;;;;;;;;16.30;99.90;;;16.48;71.61;101848.19;4845770;29;19924;-69
2022/06/03 01:30:13;;;;;;;;;;;16.20;99.90;;;16.56;71.34;101854.34;4845246;29;20390;-68
2022/06/03 01:33:20;;;;;;;;;;;16.30;99.90;;;16.64;71.00;101856.03;4845283;29;20327;-68
2022/06/03 01:36:15;;;;;;;;;;;16.40;99.90;;;16.36;71.26;101843.88;4845401;29;20375;-69
2022/06/03 01:39:13;;;;;;;;;;;16.20;99.90;;;16.35;71.20;101844.81;4844231;29;19924;-69
2022/06/03 01:42:15;;;;;;;;;;;16.10;99.90;;;16.31;71.35;101845.75;4814406;29;19947;-68
2022/06/03 01:45:18;;;;;;;;;;;16.10;99.90;;;16.39;71.12;101849.19;4833468;29;20347;-68
2022/06/03 01:48:06;;;;;;;;;;;16.10;99.90;;;16.49;70.81;101839.31;4838760;29;19924;-68
2022/06/03 01:50:53;;;;;;;;;;;16.20;99.90;;;16.33;70.50;101832.38;4844966;29;19987;-69
2022/06/03 01:53:43;;;;;;;;;;;16.20;99.90;;;15.81;70.47;101736.03;4844875;29;19977;-68
2022/06/03 01:56:37;;;;;;;;;;;16.10;99.90;;;16.53;70.21;101846.38;4827769;29;19924;-68
2022/06/03 01:59:31;;;;;;;;;;;16.20;99.90;;;16.14;70.56;101831.72;4843714;29;19946;-68
2022/06/03 02:02:25;;;;;;;;;;;16.00;99.90;;;16.10;70.42;101836.19;4844661;29;20018;-68
2022/06/03 02:05:10;;;;;;;;;;;16.00;99.90;;;16.19;70.81;101840.53;4845162;29;19934;-68
2022/06/03 02:07:50;;;;;;;;;;;15.90;99.90;;;16.04;70.59;101838.94;4844622;29;19959;-68
2022/06/03 02:10:34;;;;;;;;;;;15.80;99.90;;;15.99;71.15;101842.53;4844847;29;19924;-69
2022/06/03 02:13:56;;;;;;;;;;;15.80;99.90;;;16.10;70.88;101835.31;4844598;29;19924;-68
2022/06/03 02:16:55;;;;;;;;;;;15.80;99.90;;;15.57;70.74;101742.53;4844553;29;20049;-68
2022/06/03 02:19:34;;;;;;;;;;;15.80;99.90;;;16.00;70.70;101802.50;4844689;29;19924;-68
2022/06/03 02:22:24;;;;;;;;;;;15.90;99.90;;;16.06;70.35;101833.59;4844577;29;20349;-68
2022/06/03 02:25:25;;;;;;;;;;;15.90;99.90;;;16.12;70.59;101823.69;4838147;29;20294;-68
2022/06/03 02:28:24;;;;;;;;;;;15.90;99.90;;;16.20;70.12;101829.84;4844380;29;20340;-68
2022/06/03 02:31:18;;;;;;;;;;;15.90;99.90;;;16.27;69.94;101831.53;4843976;29;19924;-68
2022/06/03 02:34:21;;;;;;;;;;;16.00;99.90;;;16.20;69.68;101827.16;4844141;29;19934;-69
2022/06/03 02:37:26;;;;;;;;;;;16.00;99.90;;;16.22;69.37;101820.03;4844163;29;20007;-69
2022/06/03 02:40:17;;;;;;;;;;;16.00;99.90;;;16.22;69.50;101809.34;4844134;29;20019;-68
2022/06/03 02:43:02;;;;;;;;;;;16.00;99.90;;;16.11;69.26;101781.91;4844011;29;19924;-68
2022/06/03 02:46:12;;;;;;;;;;;16.00;99.90;;;16.30;69.06;101811.06;4844213;29;19924;-68
2022/06/03 02:49:04;;;;;;;;;;;16.00;99.90;;;16.30;68.82;101816.41;4843894;29;19925;-68
2022/06/03 02:51:46;;;;;;;;;;;16.00;99.90;;;16.16;68.90;101808.56;4843829;29;20379;-68
2022/06/03 02:54:25;;;;;;;;;;;15.90;99.90;;;16.15;69.33;101796.09;4843854;29;19924;-68
2022/06/03 02:57:20;;;;;;;;;;;15.90;99.90;;;16.16;68.97;101792.53;4844046;29;19947;-68
2022/06/03 03:00:07;;;;;;;;;;;16.00;99.90;;;16.20;68.74;101788.94;4843534;29;20006;-68
2022/06/03 03:02:52;;;;;;;;;;;16.00;99.90;;;16.19;68.69;101787.16;4837291;29;20024;-68
2022/06/03 03:05:31;;;;;;;;;;;16.00;99.90;;;16.22;68.65;101793.31;4843652;29;19924;-68
2022/06/03 03:08:17;;;;;;;;;;;16.00;99.90;;;16.03;68.27;101759.75;4843457;29;19974;-68
2022/06/03 03:11:11;;;;;;;;;;;16.10;99.90;;;16.31;68.26;101791.44;4843514;29;19963;-68
2022/06/03 03:14:05;;;;;;;;;;;16.10;99.90;;;16.28;68.10;101787.00;4843775;29;19981;-69
2022/06/03 03:16:50;;;;;;;;;;;16.10;99.90;;;16.13;68.11;101755.19;4843651;29;19924;-68
2022/06/03 03:19:40;;;;;;;;;;;16.00;99.90;;;16.15;68.07;101756.94;4842428;29;20390;-69
2022/06/03 03:22:41;;;;;;;;;;;16.10;99.90;;;16.10;67.87;101739.22;4842246;29;20324;-68
2022/06/03 03:25:30;;;;;;;;;;;16.10;99.90;;;16.30;67.47;101773.66;4843282;29;19925;-68
2022/06/03 03:28:21;;;;;;;;;;;16.00;99.90;;;16.32;67.28;101780.72;4843152;29;19928;-69
2022/06/03 03:31:04;;;;;;;;;;;16.10;99.90;;;15.99;67.04;101757.13;4842687;29;19925;-68
2022/06/03 03:33:55;;;;;;;;;;;16.00;99.90;;;16.03;67.43;101762.44;4843375;29;19924;-68
2022/06/03 03:36:52;;;;;;;;;;;15.80;99.90;;;16.02;67.39;101775.78;4843432;29;19924;-68
2022/06/03 03:40:14;;;;;;;;;;;15.90;99.90;;;15.95;67.42;101771.44;4829494;29;19924;-68
2022/06/03 03:43:12;;;;;;;;;;;15.80;99.90;;;15.92;67.55;101755.47;4786617;30;20040;-68
2022/06/03 03:46:27;;;;;;;;;;;15.70;99.90;;;15.91;67.66;101772.38;4785008;30;19925;-68
2022/06/03 03:49:38;;;;;;;;;;;15.70;99.90;;;15.84;67.79;101758.22;4841919;29;19931;-68
2022/06/03 03:52:37;;;;;;;;;;;15.70;99.90;;;15.86;67.83;101774.19;4841494;29;19924;-68
2022/06/03 03:55:33;;;;;;;;;;;15.60;99.90;;;15.94;67.76;101767.00;4843257;29;19966;-68
2022/06/03 03:58:18;;;;;;;;;;;15.70;99.90;;;16.00;67.79;101766.94;4843110;29;19976;-68
2022/06/03 04:01:31;;;;;;;;;;;15.70;99.90;;;15.92;67.36;101760.78;4842884;29;20023;-68
2022/06/03 04:04:21;;;;;;;;;;;15.70;99.90;;;15.79;67.49;101740.50;4786175;30;20417;-68
2022/06/03 04:07:08;;;;;;;;;;;15.70;99.90;;;15.79;67.75;101768.06;4822259;29;20375;-69
2022/06/03 04:10:04;;;;;;;;;;;15.60;99.90;;;15.72;67.95;101763.69;4842740;29;19957;-68
2022/06/03 04:12:57;;;;;;;;;;;15.60;99.90;;;15.82;68.06;101759.13;4843298;29;20019;-69
2022/06/03 04:16:04;;;;;;;;;;;15.60;99.90;;;15.73;67.92;101751.25;4828305;29;19977;-68
2022/06/03 04:19:05;;;;;;;;;;;15.60;99.90;;;15.83;68.08;101751.09;4833961;29;20278;-69
2022/06/03 04:22:04;;;;;;;;;;;15.60;99.90;;;15.96;67.49;101750.06;4843816;29;19981;-69
2022/06/03 04:25:17;;;;;;;;;;;15.70;99.90;;;15.99;67.40;101751.78;4846312;29;19973;-68
2022/06/03 04:28:22;;;;;;;;;;;15.70;99.90;;;15.99;67.48;101749.13;4834773;29;20420;-68
2022/06/03 04:31:17;;;;;;;;;;;15.80;99.90;;;15.99;67.19;101757.13;4846199;29;20362;-68
2022/06/03 04:34:05;;;;;;;;;;;15.80;99.90;;;15.87;67.26;101744.81;4816326;29;19931;-68
2022/06/03 04:37:09;;;;;;;;;;;15.70;99.90;;;15.95;67.32;101740.28;4846241;29;19960;-68
2022/06/03 04:40:13;;;;;;;;;;;15.70;99.90;;;15.98;66.83;101744.72;4846189;29;20330;-69
2022/06/03 04:43:33;;;;;;;;;;;15.80;99.90;;;15.83;66.82;101737.75;4846245;29;19932;-68
2022/06/03 04:46:38;;;;;;;;;;;15.70;99.90;;;15.96;66.67;101743.84;4807561;29;20398;-68
2022/06/03 04:49:43;;;;;;;;;;;15.80;99.90;;;16.02;67.00;101750.00;4807511;29;19925;-68
2022/06/03 04:53:07;;;;;;;;;;;15.80;99.90;;;15.96;66.71;101744.72;4815835;29;20290;-69
2022/06/03 04:56:21;;;;;;;;;;;15.80;99.90;;;16.02;66.83;101749.09;4846136;29;19924;-69
2022/06/03 04:59:13;;;;;;;;;;;15.80;99.90;;;15.77;66.56;101728.97;4844579;29;19989;-68
2022/06/03 05:02:22;;;;;;;;;;;15.80;99.90;;;15.98;66.86;101753.59;4846081;29;19924;-69
2022/06/03 05:05:37;;;;;;;;;;;15.70;99.90;;;15.92;66.82;101724.31;4816163;29;19977;-68
2022/06/03 05:08:38;;;;;;;;;;;15.80;99.90;;;15.93;67.02;101746.56;4845533;29;20015;-69
2022/06/03 05:11:54;;;;;;;;;;;15.80;99.90;;;15.89;67.38;101760.84;4845928;29;20027;-69
2022/06/03 05:14:57;;;;;;;;;;;15.80;99.90;;;15.77;68.27;101755.66;4807012;29;19925;-68
2022/06/03 05:17:54;;;;;;;;;;;15.50;99.90;;;15.57;68.70;101762.97;4845499;29;20023;-69
2022/06/03 05:20:49;;;;;;;;;;;15.30;99.90;;;15.46;68.92;101751.53;4845638;29;19973;-68
2022/06/03 05:23:35;;;;;;;;;;;15.20;99.90;;;15.44;69.40;101750.66;4845512;29;20031;-68
2022/06/03 05:26:34;;;;;;;;;;;15.10;99.90;;;15.23;70.33;101751.75;4845350;29;19928;-68
2022/06/03 05:29:30;;;;;;;;;;;15.00;99.90;;;15.32;69.95;101735.66;4843709;29;19975;-68
2022/06/03 05:32:49;;;;;;;;;;;15.10;99.90;;;15.39;69.53;101740.91;4842109;29;20428;-69
2022/06/03 05:35:42;;;;;;;;;;;15.20;99.90;;;15.29;70.61;101744.53;4829055;29;19953;-69
2022/06/03 05:38:54;;;;;;;;;;;15.10;99.90;;;15.69;69.56;101733.50;4815933;29;20011;-68
2022/06/03 05:44:51;;;;;;;;;;;15.50;99.90;;;15.65;68.69;101714.00;4844879;29;20387;-69
2022/06/03 05:47:22;;;;;;;;;;;15.60;99.90;;;15.38;68.31;101623.59;4843862;29;19940;-69
2022/06/03 05:49:57;;;;;;;;;;;15.80;99.90;;;16.17;67.54;101748.91;4845031;29;19924;-69
2022/06/03 05:52:33;;;;;;;;;;;15.90;99.90;;;16.02;67.51;101762.44;4844807;29;19931;-69
2022/06/03 05:55:23;;;;;;;;;;;15.80;99.90;;;16.01;67.98;101750.88;4828226;29;20119;-68
2022/06/03 05:58:06;;;;;;;;;;;15.70;99.90;;;16.18;67.66;101761.38;4828479;29;19924;-68
2022/06/03 06:00:50;;;;;;;;;;;15.90;99.90;;;15.82;67.59;101713.78;4844501;29;20015;-69
2022/06/03 06:03:24;;;;;;;;;;;15.90;99.90;;;16.00;67.91;101748.25;4844604;29;20024;-68
2022/06/03 06:06:11;;;;;;;;;;;15.80;99.90;;;15.97;68.78;101753.59;4844656;29;20026;-68
2022/06/03 06:08:50;;;;;;;;;;;15.70;99.90;;;16.38;67.74;101753.94;4844670;29;19928;-69
2022/06/03 06:11:20;;;;;;;;;;;16.00;99.90;;;16.41;66.53;101748.59;4843769;29;19967;-69
2022/06/03 06:14:28;;;;;;;;;;;16.10;99.90;;;16.51;66.13;101726.19;4844437;29;20398;-68
2022/06/03 06:16:59;;;;;;;;;;;16.30;99.90;;;16.44;66.24;101750.31;4825455;29;19925;-68
2022/06/03 06:19:39;;;;;;;;;;;16.30;99.90;;;16.29;65.92;101735.41;4844509;29;20396;-69
2022/06/03 06:22:19;;;;;;;;;;;16.10;99.90;;;15.74;66.72;101707.63;4844346;29;19924;-68
2022/06/03 06:24:56;;;;;;;;;;;15.90;99.90;;;16.00;68.79;101772.25;4844338;29;19924;-69
2022/06/03 06:27:54;;;;;;;;;;;15.80;99.90;;;16.09;68.39;101765.03;4844203;29;19925;-68
2022/06/03 06:31:05;;;;;;;;;;;15.70;99.90;;;16.36;67.33;101763.78;4822213;29;19928;-68
2022/06/03 06:34:11;;;;;;;;;;;15.90;99.90;;;16.14;67.33;101757.81;4787487;30;20499;-68
2022/06/03 06:37:07;;;;;;;;;;;15.90;99.90;;;16.07;68.18;101769.50;4769682;30;20429;-68
2022/06/03 06:39:57;;;;;;;;;;;15.80;99.90;;;16.50;68.21;101767.19;4843082;29;20350;-68
2022/06/03 06:42:34;;;;;;;;;;;16.00;99.90;;;16.54;67.92;101766.22;4843714;29;20311;-70
2022/06/03 06:45:12;;;;;;;;;;;16.20;99.90;;;16.62;67.05;101747.41;4844044;29;19940;-70
2022/06/03 06:47:46;;;;;;;;;;;16.30;99.90;;;16.92;65.54;101736.22;4842533;29;19977;-70
2022/06/03 06:50:19;;;;;;;;;;;16.60;99.90;;;17.17;65.21;101744.72;4842803;29;19924;-69
2022/06/03 06:52:53;;;;;;;;;;;16.90;99.90;;;17.39;65.21;101743.44;4844135;29;20366;-71
2022/06/03 06:55:26;;;;;;;;;;;17.10;99.90;;;17.63;63.06;101753.72;4844286;29;19928;-69
2022/06/03 06:57:57;;;;;;;;;;;17.30;99.90;;;17.01;64.05;101712.88;4843761;29;19951;-70
2022/06/03 07:00:28;;;;;;;;;;;17.00;99.90;;;17.29;63.82;101715.06;4843401;29;19925;-67
2022/06/03 07:03:01;;;;;;;;;;;17.00;99.90;;;16.96;65.89;101674.69;4843301;29;19981;-66
2022/06/03 07:05:33;;;;;;;;;;;17.00;99.90;;;16.87;65.26;101661.50;4843404;29;19947;-67
2022/06/03 07:08:06;;;;;;;;;;;16.90;99.90;;;17.52;64.21;101751.22;4842435;29;19931;-67
2022/06/03 07:10:39;;;;;;;;;;;17.10;99.90;;;17.56;63.88;101750.25;4842267;29;19924;-67
2022/06/03 07:13:11;;;;;;;;;;;17.20;99.90;;;17.58;63.62;101697.59;4843432;29;19996;-68
2022/06/03 07:15:49;;;;;;;;;;;17.50;99.90;;;18.23;62.73;101739.06;4843256;29;19958;-67
2022/06/03 07:21:15;;;;;;;;;;;18.00;99.90;;;18.27;61.50;101742.56;4843468;29;19928;-60
2022/06/03 07:23:48;;;;;;;;;;;18.10;99.90;;;18.60;61.10;101756.09;4843416;29;19932;-60
2022/06/03 07:26:22;;;;;;;;;;;18.30;99.90;;;18.50;61.46;101751.00;4843129;29;19924;-61
2022/06/03 07:28:55;;;;;;;;;;;18.30;99.90;;;18.51;60.73;101713.44;4843403;29;19932;-61
2022/06/03 07:31:27;;;;;;;;;;;18.40;99.90;;;18.77;61.56;101732.47;4843085;29;19925;-60
2022/06/03 07:34:01;;;;;;;;;;;18.50;99.90;;;18.90;60.79;101708.91;4843125;29;20023;-58
2022/06/03 07:36:36;;;;;;;;;;;18.80;99.90;;;19.09;60.03;101745.06;4843180;29;19924;-59
2022/06/03 07:39:40;;;;;;;;;;;18.90;99.90;;;19.40;60.05;101737.13;4843118;29;19985;-59
2022/06/03 07:42:13;;;;;;;;;;;19.10;99.90;;;19.47;59.27;101728.03;4842795;29;20402;-59
2022/06/03 07:45:10;;;;;;;;;;;19.30;99.90;;;19.79;59.07;101746.78;4843271;29;20019;-58
2022/06/03 07:47:39;;;;;;;;;;;19.50;99.90;;;20.03;58.38;101748.78;4842823;29;19925;-59
2022/06/03 07:50:15;;;;;;;;;;;19.80;99.90;;;20.05;57.57;101748.72;4841652;29;19924;-59
2022/06/03 07:52:47;;;;;;;;;;;19.80;99.90;;;20.20;58.24;101730.38;4842949;29;19955;-59
2022/06/03 07:55:17;;;;;;;;;;;19.90;99.90;;;20.04;56.71;101745.16;4842487;29;20344;-58
2022/06/03 07:57:50;;;;;;;;;;;19.80;99.90;;;20.27;56.94;101737.31;4842848;29;19924;-58
2022/06/03 08:00:21;;;;;;;;;;;20.00;99.90;;;19.73;55.42;101639.56;4842533;29;19928;-59
2022/06/03 08:03:01;;;;;;;;;;;20.10;99.90;;;20.28;56.17;101741.78;4842883;29;19924;-59
2022/06/03 08:05:32;;;;;;;;;;;20.00;99.90;;;19.91;54.61;101662.28;4842931;29;20027;-59
2022/06/03 08:11:00;;;;;;;;;;;19.80;99.90;;;19.90;56.70;101720.50;4842624;29;20360;-60
2022/06/03 08:13:31;;;;;;;;;;;19.60;99.90;;;20.27;55.74;101731.94;4826676;29;19925;-59
2022/06/03 08:16:02;;;;;;;;;;;19.90;99.90;;;20.48;54.73;101711.56;4841546;29;19995;-59
2022/06/03 08:18:34;;;;;;;;;;;20.20;99.90;;;20.08;56.18;101719.97;4842951;29;19928;-59
2022/06/03 08:21:06;;;;;;;;;;;19.90;99.90;;;20.40;54.93;101717.19;4842926;29;19981;-59
2022/06/03 08:23:34;;;;;;;;;;;20.10;99.90;;;20.51;55.47;101709.69;4842786;29;19924;-60
2022/06/03 08:26:05;;;;;;;;;;;20.30;99.90;;;20.63;54.47;101709.28;4842512;29;20011;-59
2022/06/03 08:28:34;;;;;;;;;;;20.50;99.90;;;20.03;56.21;101716.53;4842505;29;19924;-59
2022/06/03 08:31:05;;;;;;;;;;;20.00;99.90;;;19.66;56.10;101723.91;4842435;29;20343;-59
2022/06/03 08:33:40;;;;;;;;;;;19.60;99.90;;;19.52;58.03;101712.66;4842409;29;19924;-59
2022/06/03 08:36:13;;;;;;;;;;;19.20;99.90;;;19.44;57.02;101588.53;4842751;29;19925;-59
2022/06/03 08:38:44;;;;;;;;;;;19.60;99.90;;;20.38;56.53;101678.72;4843074;29;19928;-59
2022/06/03 08:41:31;;;;;;;;;;;20.10;99.90;;;20.46;55.29;101663.25;4842424;29;19956;-59
2022/06/03 08:44:09;;;;;;;;;;;20.40;99.90;;;21.03;54.43;101705.31;4842321;29;19924;-59
2022/06/03 08:46:43;;;;;;;;;;;20.70;99.90;;;21.17;53.77;101694.97;4841375;29;19959;-59
2022/06/03 08:49:13;;;;;;;;;;;20.90;99.90;;;21.32;52.56;101689.03;4842666;29;20351;-59
2022/06/03 08:51:52;;;;;;;;;;;21.20;99.90;;;21.16;53.96;101690.50;4842204;29;19924;-59
2022/06/03 08:54:27;;;;;;;;;;;21.00;99.90;;;21.19;54.08;101701.16;4842308;29;19958;-60
2022/06/03 08:57:00;;;;;;;;;;;21.00;99.90;;;21.44;54.19;101688.59;4842505;29;19932;-63
2022/06/03 08:59:43;;;;;;;;;;;21.20;99.90;;;21.86;54.39;101707.72;4842260;29;19996;-61
2022/06/03 09:02:22;;;;;;;;;;;21.50;99.90;;;22.03;52.69;101687.28;4842331;29;19924;-60
2022/06/03 09:04:53;;;;;;;;;;;21.80;99.90;;;21.70;52.27;101637.34;4842513;29;20263;-61
2022/06/03 09:07:27;;;;;;;;;;;21.90;99.90;;;21.52;51.59;101656.91;4845636;29;19928;-61
2022/06/03 09:10:08;;;;;;;;;;;21.80;99.90;;;21.93;53.96;101693.94;4845522;29;19988;-65
2022/06/03 09:12:45;;;;;;;;;;;21.70;99.90;;;22.27;52.67;101705.19;4845508;29;19928;-61
2022/06/03 09:15:20;;;;;;;;;;;22.00;99.90;;;21.38;52.13;101514.72;4845472;29;19931;-60
2022/06/03 09:17:51;;;;;;;;;;;22.20;99.90;;;22.57;51.53;101702.25;4845462;29;19925;-60
2022/06/03 09:20:24;;;;;;;;;;;22.40;99.90;;;21.69;52.42;101718.19;4845495;29;19924;-61
2022/06/03 09:22:58;;;;;;;;;;;21.70;99.90;;;22.09;52.70;101702.31;4844396;29;19924;-60
2022/06/03 09:25:27;;;;;;;;;;;21.70;99.90;;;22.39;51.98;101695.75;4844425;29;19924;-60
2022/06/03 09:28:00;;;;;;;;;;;22.10;99.90;;;22.25;51.20;101671.16;4845151;29;20363;-60
2022/06/03 09:30:31;;;;;;;;;;;22.30;99.90;;;22.19;52.08;101707.31;4844339;29;19954;-60
2022/06/03 09:33:02;;;;;;;;;;;22.00;99.90;;;22.25;52.27;101685.50;4845651;29;19928;-60
2022/06/03 09:35:31;;;;;;;;;;;22.10;99.90;;;22.62;51.48;101703.81;4844248;29;19924;-61
2022/06/03 09:38:02;;;;;;;;;;;22.40;99.90;;;22.83;50.88;101694.84;4845357;29;20022;-60
2022/06/03 09:40:32;;;;;;;;;;;22.60;99.90;;;22.60;51.43;101696.72;4845141;29;19964;-60
2022/06/03 09:43:04;;;;;;;;;;;22.40;99.90;;;22.69;50.67;101691.81;4845359;29;20015;-60
2022/06/03 09:45:33;;;;;;;;;;;22.60;99.90;;;22.37;53.27;101693.13;4843884;29;19930;-60
2022/06/03 09:48:04;;;;;;;;;;;22.30;99.90;;;22.18;51.15;101708.22;4845371;29;20032;-61
2022/06/03 09:50:33;;;;;;;;;;;22.00;99.90;;;21.74;52.25;101709.00;4844791;29;19924;-61
2022/06/03 09:53:05;;;;;;;;;;;21.60;99.90;;;22.17;51.38;101711.88;4844640;29;20000;-61
2022/06/03 09:55:36;;;;;;;;;;;21.80;99.90;;;22.00;53.18;101705.38;4845076;29;19924;-61
2022/06/03 09:58:06;;;;;;;;;;;21.70;99.90;;;22.04;52.67;101691.75;4844866;29;19928;-61
2022/06/03 10:00:42;;;;;;;;;;;21.80;99.90;;;21.90;52.42;101699.47;4844873;29;19930;-64
2022/06/03 10:03:11;;;;;;;;;;;21.70;99.90;;;21.57;51.97;101692.59;4844693;29;19925;-63
2022/06/03 10:05:39;;;;;;;;;;;21.50;99.90;;;21.49;50.39;101665.94;4844601;29;20357;-65
2022/06/03 10:08:11;;;;;;;;;;;21.50;99.90;;;21.18;51.12;101653.63;4844753;29;19925;-65
2022/06/03 10:13:28;;;;;;;;;;;21.50;99.90;;;21.90;51.84;101696.78;4825325;29;19924;-66
2022/06/03 10:15:59;;;;;;;;;;;21.60;99.90;;;22.38;50.52;101705.66;4843382;29;20439;-66
2022/06/03 10:18:38;;;;;;;;;;;22.00;99.90;;;22.10;50.51;101661.88;4842801;29;19945;-66
2022/06/03 10:21:30;;;;;;;;;;;22.20;99.90;;;22.33;51.20;101709.47;4844156;29;19933;-66
2022/06/03 10:24:02;;;;;;;;;;;22.10;99.90;;;22.44;49.88;101675.75;4844187;29;19928;-66
2022/06/03 10:26:38;;;;;;;;;;;22.20;99.90;;;22.70;49.44;101688.22;4844241;29;19931;-66
2022/06/03 10:29:09;;;;;;;;;;;22.50;99.90;;;22.02;48.59;101626.25;4844315;29;19947;-66
2022/06/03 10:31:49;;;;;;;;;;;22.30;99.90;;;22.80;49.21;101688.69;4843225;29;19924;-66
2022/06/03 10:34:22;;;;;;;;;;;22.40;99.90;;;22.61;49.14;101685.00;4844113;29;20279;-66
2022/06/03 10:36:53;;;;;;;;;;;22.30;99.90;;;22.80;50.76;101677.91;4843025;29;20370;-64
2022/06/03 10:39:27;;;;;;;;;;;22.40;99.90;;;22.68;48.07;101635.25;4844260;29;20283;-66
2022/06/03 10:41:58;;;;;;;;;;;22.70;99.90;;;22.85;47.76;101686.69;4844233;29;19930;-66
2022/06/03 10:44:28;;;;;;;;;;;22.60;99.90;;;22.76;49.64;101687.06;4843802;29;19924;-66
2022/06/03 10:46:58;;;;;;;;;;;22.40;99.90;;;22.56;47.50;101636.59;4844187;29;19930;-66
2022/06/03 10:49:28;;;;;;;;;;;22.60;99.90;;;22.13;47.75;101586.25;4843828;29;19931;-66
2022/06/03 11:03:07;;;;;;;;;;;23.30;99.90;;;23.12;45.82;101663.91;4843508;29;20015;-66
2022/06/03 11:05:37;;;;;;;;;;;23.10;99.90;;;23.21;46.03;101641.88;4843421;29;19924;-65
2022/06/03 11:08:08;;;;;;;;;;;23.20;99.90;;;22.78;47.08;101685.19;4843405;29;20018;-65
2022/06/03 11:10:42;;;;;;;;;;;22.60;99.90;;;22.98;47.24;101658.22;4843411;29;19924;-66
2022/06/03 11:13:15;;;;;;;;;;;22.60;99.90;;;23.08;46.98;101678.47;4843471;29;19964;-65
2022/06/03 11:15:45;;;;;;;;;;;22.80;99.90;;;22.72;48.30;101659.34;4842253;29;20025;-65
2022/06/03 11:18:15;;;;;;;;;;;22.50;99.90;;;23.07;47.68;101666.78;4843313;29;20343;-65
2022/06/03 11:20:44;;;;;;;;;;;22.70;99.90;;;22.63;47.17;101669.66;4843482;29;20390;-65
2022/06/03 11:23:13;;;;;;;;;;;22.40;99.90;;;22.52;50.56;101661.06;4843209;29;19928;-65
2022/06/03 11:25:46;;;;;;;;;;;22.20;99.90;;;22.64;48.65;101617.44;4843068;29;19981;-65
2022/06/03 11:28:18;;;;;;;;;;;22.50;99.90;;;23.17;48.63;101662.75;4827058;29;20404;-64
2022/06/03 11:30:49;;;;;;;;;;;22.80;99.90;;;23.45;45.35;101665.16;4843116;29;19936;-62
2022/06/03 11:33:22;;;;;;;;;;;23.10;99.90;;;23.49;45.90;101658.66;4843104;29;19925;-65
2022/06/03 11:35:53;;;;;;;;;;;23.20;99.90;;;23.39;45.27;101662.72;4842142;29;19928;-68
2022/06/03 11:38:28;;;;;;;;;;;23.20;99.90;;;22.98;44.98;101650.13;4843143;29;19925;-68
2022/06/03 11:41:02;;;;;;;;;;;22.90;99.90;;;22.67;47.07;101628.06;4843220;29;19977;-68
2022/06/03 11:43:35;;;;;;;;;;;22.70;99.90;;;21.13;47.31;101375.78;4843152;29;19959;-69
2022/06/03 11:46:26;;;;;;;;;;;22.40;99.90;;;22.67;45.01;101666.72;4843050;29;20379;-68
2022/06/03 11:48:55;;;;;;;;;;;22.50;99.90;;;22.60;47.18;101645.47;4843135;29;19963;-68
2022/06/03 11:51:24;;;;;;;;;;;22.30;99.90;;;22.96;45.25;101673.59;4843117;29;20364;-68
2022/06/03 11:53:52;;;;;;;;;;;22.60;99.90;;;22.89;45.77;101672.13;4842930;29;19935;-68
2022/06/03 11:56:25;;;;;;;;;;;22.50;99.90;;;23.13;45.91;101663.81;4842853;29;20024;-68
2022/06/03 11:59:02;;;;;;;;;;;22.70;99.90;;;22.74;45.25;101546.84;4841943;29;19932;-68
2022/06/03 12:01:37;;;;;;;;;;;23.10;99.90;;;23.42;45.33;101670.72;4843185;29;19928;-68
2022/06/03 12:04:15;;;;;;;;;;;23.10;99.90;;;23.64;45.65;101676.00;4842836;29;20331;-68
2022/06/03 12:06:49;;;;;;;;;;;23.30;99.90;;;23.40;45.58;101658.22;4841694;29;19924;-68
2022/06/03 12:09:28;;;;;;;;;;;23.20;99.90;;;23.44;45.66;101657.13;4841807;29;19924;-68
2022/06/03 12:14:57;;;;;;;;;;;23.50;99.90;;;24.22;43.24;101676.88;4842972;29;20425;-68
2022/06/03 12:17:31;;;;;;;;;;;23.90;99.90;;;23.78;44.77;101655.50;4841682;29;19959;-68
2022/06/03 12:20:00;;;;;;;;;;;23.60;99.90;;;23.48;43.62;101667.69;4842981;29;20351;-68
2022/06/03 12:22:39;;;;;;;;;;;23.30;99.90;;;23.69;44.07;101660.47;4842245;29;19924;-67
2022/06/03 12:25:44;;;;;;;;;;;23.30;99.90;;;23.50;42.21;101662.25;4842775;29;19925;-68
2022/06/03 12:28:20;;;;;;;;;;;23.30;99.90;;;23.60;41.15;101668.97;4842520;29;20379;-68
2022/06/03 12:30:51;;;;;;;;;;;23.30;99.90;;;23.37;43.72;101655.63;4842495;29;20025;-68
2022/06/03 12:33:28;;;;;;;;;;;23.00;99.90;;;23.37;42.61;101663.72;4842469;29;20335;-68
2022/06/03 12:36:01;;;;;;;;;;;23.00;99.90;;;23.33;42.83;101636.00;4842696;29;20332;-68
2022/06/03 12:38:44;;;;;;;;;;;23.10;99.90;;;23.65;42.53;101661.56;4843052;29;20018;-68
2022/06/03 12:41:51;;;;;;;;;;;23.30;99.90;;;24.12;42.66;101654.81;4845024;29;19980;-67
2022/06/03 12:44:43;;;;;;;;;;;23.70;99.90;;;23.73;40.54;101662.94;4846439;29;19924;-67
2022/06/03 12:47:43;;;;;;;;;;;23.60;99.90;;;23.71;41.57;101659.44;4846308;29;20394;-67
2022/06/03 12:50:32;;;;;;;;;;;23.40;99.90;;;24.10;40.48;101660.31;4807438;29;20023;-67